createdAt,value
2022-11-14T00:01:10.385Z,99.90
2022-11-14T00:05:44.407Z,99.90
2022-11-14T00:10:17.447Z,99.90
2022-11-14T00:14:49.968Z,99.90
2022-11-14T00:19:23.434Z,99.90
2022-11-14T00:23:55.733Z,99.90
2022-11-14T00:28:28.377Z,99.90
2022-11-14T00:33:00.816Z,99.90
2022-11-14T00:37:34.613Z,99.90
2022-11-14T00:42:07.187Z,99.90
2022-11-14T00:46:39.679Z,99.90
2022-11-14T00:51:11.805Z,99.90
2022-11-14T00:55:45.641Z,99.90
2022-11-14T01:00:18.079Z,99.90
2022-11-14T01:04:50.552Z,99.90
2022-11-14T01:09:23.035Z,99.90
2022-11-14T01:13:57.013Z,99.90
2022-11-14T01:18:29.491Z,99.90
2022-11-14T01:23:01.936Z,99.90
2022-11-14T01:27:34.605Z,99.90
2022-11-14T01:32:07.971Z,99.90
2022-11-14T01:36:40.285Z,99.90
2022-11-14T01:41:15.850Z,99.90
2022-11-14T01:45:53.405Z,99.90
2022-11-14T01:50:29.320Z,99.90
2022-11-14T01:55:08.272Z,99.90
2022-11-14T01:59:44.910Z,99.90
2022-11-14T02:04:22.029Z,99.90
2022-11-14T02:08:56.528Z,99.90
2022-11-14T02:13:28.458Z,99.90
2022-11-14T02:18:02.152Z,99.90
2022-11-14T02:22:36.033Z,99.90
2022-11-14T02:27:09.490Z,99.90
2022-11-14T02:31:41.679Z,99.90
2022-11-14T02:36:14.037Z,99.90
2022-11-14T02:40:47.534Z,99.90
2022-11-14T02:45:20.871Z,99.90
2022-11-14T02:49:53.328Z,99.90
2022-11-14T02:54:25.845Z,99.90
2022-11-14T02:58:59.769Z,99.90
2022-11-14T03:03:32.171Z,99.90
2022-11-14T03:08:04.398Z,99.90
2022-11-14T03:12:36.722Z,99.90
2022-11-14T03:17:10.596Z,99.90
2022-11-14T03:21:42.602Z,99.90
2022-11-14T03:26:16.814Z,99.90
2022-11-14T03:30:49.020Z,99.90
2022-11-14T03:35:22.713Z,99.90
2022-11-14T03:39:55.832Z,99.90
2022-11-14T03:44:27.810Z,99.90
2022-11-14T03:48:59.996Z,99.90
2022-11-14T03:53:33.876Z,99.90
2022-11-14T03:58:06.162Z,99.90
2022-11-14T04:02:38.177Z,99.90
2022-11-14T04:07:10.289Z,99.90
2022-11-14T04:11:43.932Z,99.90
2022-11-14T04:16:16.214Z,99.90
2022-11-14T04:20:48.295Z,99.90
2022-11-14T04:25:20.559Z,99.90
2022-11-14T04:29:54.357Z,99.90
2022-11-14T04:34:26.723Z,99.90
2022-11-14T04:38:59.040Z,99.90
2022-11-14T04:43:31.304Z,99.90
2022-11-14T04:48:05.111Z,99.90
2022-11-14T04:52:37.217Z,99.90
2022-11-14T04:57:09.777Z,99.90
2022-11-14T05:01:42.119Z,99.90
2022-11-14T05:06:15.843Z,99.90
2022-11-14T05:10:47.933Z,99.90
2022-11-14T05:15:20.169Z,99.90
2022-11-14T05:19:52.457Z,99.90
2022-11-14T05:24:26.236Z,99.90
2022-11-14T05:28:58.235Z,99.90
2022-11-14T05:33:30.287Z,99.90
2022-11-14T05:38:02.415Z,99.90
2022-11-14T05:42:35.899Z,99.90
2022-11-14T05:47:08.077Z,99.90
2022-11-14T05:51:40.052Z,99.90
2022-11-14T05:56:13.471Z,99.90
2022-11-14T06:00:53.468Z,99.90
2022-11-14T06:05:26.686Z,99.90
2022-11-14T06:09:59.099Z,99.90
2022-11-14T06:14:31.378Z,99.90
2022-11-14T06:19:05.967Z,99.90
2022-11-14T06:23:38.284Z,99.90
2022-11-14T06:28:10.651Z,99.90
2022-11-14T06:32:43.032Z,99.90
2022-11-14T06:37:16.526Z,99.90
2022-11-14T06:41:49.296Z,99.90
2022-11-14T06:46:23.329Z,99.90
2022-11-14T06:50:56.579Z,99.90
2022-11-14T06:55:29.888Z,99.90
2022-11-14T07:00:02.721Z,99.90
2022-11-14T07:04:34.897Z,99.90
2022-11-14T07:09:07.534Z,99.90
2022-11-14T07:13:41.215Z,99.90
2022-11-14T07:18:13.511Z,99.90
2022-11-14T07:22:47.146Z,99.90
2022-11-14T07:27:19.616Z,99.90
2022-11-14T07:31:53.314Z,99.90
2022-11-14T07:36:25.621Z,99.90
2022-11-14T07:41:00.147Z,99.90
2022-11-14T07:45:33.363Z,99.90
2022-11-14T07:50:08.307Z,99.90
2022-11-14T07:54:40.483Z,99.90
2022-11-14T07:59:12.649Z,99.90
2022-11-14T08:03:46.259Z,99.90
2022-11-14T08:08:20.069Z,99.90
2022-11-14T08:13:25.323Z,99.90
2022-11-14T08:17:52.301Z,99.90
2022-11-14T08:22:24.521Z,99.90
2022-11-14T08:26:58.206Z,99.90
2022-11-14T08:31:30.401Z,99.90
2022-11-14T08:36:03.119Z,99.90
2022-11-14T08:40:35.314Z,99.90
2022-11-14T08:45:09.596Z,99.90
2022-11-14T08:49:42.003Z,99.90
2022-11-14T08:54:14.373Z,98.40
2022-11-14T08:58:46.752Z,96.00
2022-11-14T09:03:20.358Z,94.90
2022-11-14T09:07:52.946Z,93.80
2022-11-14T09:12:25.135Z,93.20
2022-11-14T09:16:59.688Z,91.90
2022-11-14T09:21:36.629Z,91.40
2022-11-14T09:26:10.967Z,90.60
2022-11-14T09:30:43.173Z,89.90
2022-11-14T09:35:15.897Z,87.20
2022-11-14T09:39:49.521Z,84.40
2022-11-14T09:44:38.481Z,83.60
2022-11-14T09:49:19.320Z,83.50
2022-11-14T09:53:56.794Z,82.80
2022-11-14T09:58:30.678Z,82.40
2022-11-14T10:03:13.828Z,80.30
2022-11-14T10:07:58.470Z,79.70
2022-11-14T10:12:40.615Z,79.50
2022-11-14T10:17:31.023Z,79.20
2022-11-14T10:22:14.426Z,78.40
2022-11-14T10:26:53.083Z,78.20
2022-11-14T10:31:38.627Z,78.20
2022-11-14T10:36:20.646Z,79.30
2022-11-14T10:40:58.154Z,78.60
2022-11-14T10:45:35.854Z,77.50
2022-11-14T10:50:20.041Z,76.60
2022-11-14T10:55:00.429Z,76.40
2022-11-14T10:59:32.699Z,76.30
2022-11-14T11:04:20.867Z,75.60
2022-11-14T11:09:10.926Z,74.60
2022-11-14T11:13:56.169Z,74.00
2022-11-14T11:18:30.815Z,73.70
2022-11-14T11:23:04.639Z,73.10
2022-11-14T11:27:36.882Z,73.40
2022-11-14T11:32:10.942Z,73.00
2022-11-14T11:36:48.154Z,72.00
2022-11-14T11:42:06.214Z,71.40
2022-11-14T11:46:26.212Z,71.00
2022-11-14T11:51:01.967Z,70.00
2022-11-14T11:55:37.426Z,69.40
2022-11-14T12:00:17.230Z,69.90
2022-11-14T12:04:51.983Z,69.90
2022-11-14T12:10:08.184Z,69.70
2022-11-14T12:14:53.804Z,69.40
2022-11-14T12:19:52.597Z,69.00
2022-11-14T12:24:56.654Z,68.50
2022-11-14T12:29:51.366Z,68.60
2022-11-14T12:34:28.344Z,68.80
2022-11-14T12:39:03.109Z,69.10
2022-11-14T12:43:38.674Z,69.60
2022-11-14T12:48:23.667Z,70.00
2022-11-14T12:52:56.748Z,70.20
2022-11-14T12:57:51.462Z,70.30
2022-11-14T13:02:53.752Z,70.70
2022-11-14T13:07:34.829Z,70.70
2022-11-14T13:12:47.418Z,70.70
2022-11-14T13:17:46.660Z,70.90
2022-11-14T13:22:37.101Z,70.90
2022-11-14T13:27:45.240Z,71.00
2022-11-14T13:33:02.128Z,71.00
2022-11-14T13:37:54.290Z,70.90
2022-11-14T13:42:36.762Z,70.70
2022-11-14T13:47:32.074Z,70.60
2022-11-14T13:52:04.573Z,70.30
2022-11-14T13:56:49.994Z,70.20
2022-11-14T14:01:38.263Z,70.30
2022-11-14T14:06:35.930Z,70.40
2022-11-14T14:11:42.694Z,70.60
2022-11-14T14:16:48.246Z,70.80
2022-11-14T14:21:33.985Z,70.80
2022-11-14T14:26:15.834Z,71.00
2022-11-14T14:31:10.722Z,71.30
2022-11-14T14:35:53.471Z,71.80
2022-11-14T14:40:27.485Z,72.10
2022-11-14T14:45:00.149Z,72.40
2022-11-14T14:49:37.161Z,72.70
2022-11-14T14:54:21.998Z,73.10
2022-11-14T14:58:54.262Z,73.30
2022-11-14T15:03:36.413Z,73.70
2022-11-14T15:08:15.078Z,73.90
2022-11-14T15:12:50.586Z,74.20
2022-11-14T15:17:23.718Z,74.50
2022-11-14T15:22:06.207Z,74.80
2022-11-14T15:26:38.493Z,75.20
2022-11-14T15:31:20.058Z,75.60
2022-11-14T15:36:06.874Z,75.90
2022-11-14T15:40:41.035Z,76.30
2022-11-14T15:45:23.654Z,76.90
2022-11-14T15:50:02.539Z,77.80
2022-11-14T15:54:37.720Z,78.50
2022-11-14T15:59:11.953Z,79.00
2022-11-14T16:03:48.433Z,79.40
2022-11-14T16:08:22.241Z,80.20
2022-11-14T16:12:54.372Z,80.90
2022-11-14T16:17:26.665Z,81.50
2022-11-14T16:22:02.667Z,81.70
2022-11-14T16:26:38.058Z,82.20
2022-11-14T16:31:12.591Z,82.80
2022-11-14T16:35:45.793Z,83.10
2022-11-14T16:40:21.509Z,83.50
2022-11-14T16:45:01.624Z,83.70
2022-11-14T16:49:34.089Z,84.10
2022-11-14T16:54:06.904Z,84.40
2022-11-14T16:58:41.103Z,84.70
2022-11-14T17:03:14.364Z,85.20
2022-11-14T17:07:46.868Z,85.70
2022-11-14T17:12:18.757Z,86.10
2022-11-14T17:16:51.172Z,86.40
2022-11-14T17:21:26.399Z,86.70
2022-11-14T17:26:03.033Z,86.90
2022-11-14T17:30:35.693Z,87.40
2022-11-14T17:35:08.815Z,87.50
2022-11-14T17:39:42.280Z,87.60
2022-11-14T17:44:14.335Z,87.90
2022-11-14T17:48:46.674Z,88.30
2022-11-14T17:53:19.405Z,88.40
2022-11-14T17:57:52.927Z,88.50
2022-11-14T18:02:25.557Z,88.60
2022-11-14T18:06:58.008Z,88.50
2022-11-14T18:11:30.030Z,88.90
2022-11-14T18:16:04.451Z,89.50
2022-11-14T18:20:39.069Z,89.40
2022-11-14T18:25:11.047Z,89.40
2022-11-14T18:29:43.335Z,90.00
2022-11-14T18:34:17.030Z,90.20
2022-11-14T18:38:49.361Z,90.30
2022-11-14T18:43:21.790Z,90.20
2022-11-14T18:47:54.036Z,90.20
2022-11-14T18:52:27.893Z,90.10
2022-11-14T18:57:00.250Z,90.10
2022-11-14T19:01:32.544Z,90.00
2022-11-14T19:06:05.872Z,89.90
2022-11-14T19:10:39.312Z,89.90
2022-11-14T19:15:12.284Z,89.90
2022-11-14T19:19:44.395Z,90.00
2022-11-14T19:24:16.934Z,90.10
2022-11-14T19:28:50.877Z,90.30
2022-11-14T19:33:23.162Z,90.50
2022-11-14T19:37:55.637Z,90.60
2022-11-14T19:42:28.139Z,90.70
2022-11-14T19:47:01.773Z,90.80
2022-11-14T19:51:34.158Z,90.90
2022-11-14T19:56:09.038Z,91.00
2022-11-14T20:00:41.582Z,91.20
2022-11-14T20:05:15.406Z,91.40
2022-11-14T20:09:48.140Z,91.50
2022-11-14T20:14:20.816Z,91.50
2022-11-14T20:18:58.812Z,91.70
2022-11-14T20:23:34.452Z,91.60
2022-11-14T20:28:08.028Z,91.60
2022-11-14T20:32:40.409Z,91.70
2022-11-14T20:37:12.714Z,91.90
2022-11-14T20:41:46.410Z,92.20
2022-11-14T20:46:19.874Z,92.70
2022-11-14T20:50:52.226Z,93.10
2022-11-14T20:55:24.710Z,93.30
2022-11-14T20:59:58.322Z,93.30
2022-11-14T21:04:30.873Z,93.40
2022-11-14T21:09:03.199Z,93.70
2022-11-14T21:13:54.473Z,93.90
2022-11-14T21:18:28.927Z,94.30
2022-11-14T21:23:01.353Z,94.20
2022-11-14T21:27:33.720Z,94.20
2022-11-14T21:32:06.393Z,94.30
2022-11-14T21:36:47.478Z,94.20
2022-11-14T21:41:22.199Z,94.40
2022-11-14T21:45:56.354Z,94.50
2022-11-14T21:50:28.492Z,94.60
2022-11-14T21:55:02.234Z,94.50
2022-11-14T21:59:34.145Z,94.40
2022-11-14T22:04:15.765Z,94.30
2022-11-14T22:08:48.528Z,94.40
2022-11-14T22:13:22.001Z,94.60
2022-11-14T22:17:55.467Z,94.70
2022-11-14T22:22:27.643Z,95.00
2022-11-14T22:27:00.132Z,95.00
2022-11-14T22:31:34.025Z,95.20
2022-11-14T22:36:08.088Z,95.40
2022-11-14T22:40:40.025Z,95.70
2022-11-14T22:45:12.369Z,95.90
2022-11-14T22:49:45.968Z,96.10
2022-11-14T22:54:18.662Z,96.40
2022-11-14T22:58:51.188Z,96.60
2022-11-14T23:03:32.894Z,96.80
2022-11-14T23:08:07.247Z,96.90
2022-11-14T23:12:39.541Z,96.90
2022-11-14T23:17:11.680Z,96.90
2022-11-14T23:21:43.948Z,97.10
2022-11-14T23:26:18.858Z,97.10
2022-11-14T23:30:51.207Z,97.10
2022-11-14T23:35:23.354Z,97.10
2022-11-14T23:39:55.510Z,97.10
2022-11-14T23:44:29.163Z,97.10
2022-11-14T23:49:01.594Z,97.30
2022-11-14T23:53:34.142Z,97.30
2022-11-14T23:58:06.225Z,97.50
